sensor_id;sensor_type;location;lat;lon;timestamp;P1;durP1;ratioP1;P2;durP2;ratioP2
4422;SDS011;2224;49.814;8.650;2022-07-23T00:01:25;8.67;;;7.10;;
4422;SDS011;2224;49.814;8.650;2022-07-23T00:03:52;8.07;;;7.27;;
4422;SDS011;2224;49.814;8.650;2022-07-23T00:06:19;8.93;;;7.90;;
4422;SDS011;2224;49.814;8.650;2022-07-23T00:08:44;8.90;;;7.97;;
4422;SDS011;2224;49.814;8.650;2022-07-23T00:11:09;9.10;;;8.10;;
4422;SDS011;2224;49.814;8.650;2022-07-23T00:13:35;7.57;;;6.90;;
4422;SDS011;2224;49.814;8.650;2022-07-23T00:16:00;8.20;;;7.40;;
4422;SDS011;2224;49.814;8.650;2022-07-23T00:18:26;8.53;;;7.67;;
4422;SDS011;2224;49.814;8.650;2022-07-23T00:20:51;8.03;;;7.33;;
4422;SDS011;2224;49.814;8.650;2022-07-23T00:23:16;7.87;;;7.00;;
4422;SDS011;2224;49.814;8.650;2022-07-23T00:25:42;7.80;;;7.10;;
4422;SDS011;2224;49.814;8.650;2022-07-23T00:28:07;10.20;;;6.80;;
4422;SDS011;2224;49.814;8.650;2022-07-23T00:30:33;8.57;;;7.67;;
4422;SDS011;2224;49.814;8.650;2022-07-23T00:32:59;7.47;;;6.87;;
4422;SDS011;2224;49.814;8.650;2022-07-23T00:35:30;8.37;;;7.67;;
4422;SDS011;2224;49.814;8.650;2022-07-23T00:37:57;8.30;;;7.60;;
4422;SDS011;2224;49.814;8.650;2022-07-23T00:40:24;11.13;;;9.00;;
4422;SDS011;2224;49.814;8.650;2022-07-23T00:42:49;8.93;;;8.10;;
4422;SDS011;2224;49.814;8.650;2022-07-23T00:45:15;9.13;;;8.43;;
4422;SDS011;2224;49.814;8.650;2022-07-23T00:47:40;10.23;;;9.13;;
4422;SDS011;2224;49.814;8.650;2022-07-23T00:50:06;9.33;;;8.53;;
4422;SDS011;2224;49.814;8.650;2022-07-23T00:52:33;11.37;;;9.30;;
4422;SDS011;2224;49.814;8.650;2022-07-23T00:54:59;9.57;;;8.77;;
4422;SDS011;2224;49.814;8.650;2022-07-23T00:57:24;9.17;;;8.27;;
4422;SDS011;2224;49.814;8.650;2022-07-23T00:59:50;8.97;;;8.10;;
4422;SDS011;2224;49.814;8.650;2022-07-23T01:02:15;9.20;;;8.30;;
4422;SDS011;2224;49.814;8.650;2022-07-23T01:04:40;9.70;;;8.40;;
4422;SDS011;2224;49.814;8.650;2022-07-23T01:07:06;8.90;;;8.00;;
4422;SDS011;2224;49.814;8.650;2022-07-23T01:09:32;8.63;;;7.93;;
4422;SDS011;2224;49.814;8.650;2022-07-23T01:11:57;10.20;;;8.50;;
4422;SDS011;2224;49.814;8.650;2022-07-23T01:14:23;8.10;;;7.27;;
4422;SDS011;2224;49.814;8.650;2022-07-23T01:16:49;8.80;;;7.97;;
4422;SDS011;2224;49.814;8.650;2022-07-23T01:19:15;8.90;;;8.10;;
4422;SDS011;2224;49.814;8.650;2022-07-23T01:21:45;7.83;;;7.23;;
4422;SDS011;2224;49.814;8.650;2022-07-23T01:24:12;7.90;;;7.10;;
4422;SDS011;2224;49.814;8.650;2022-07-23T01:26:38;7.63;;;6.83;;
4422;SDS011;2224;49.814;8.650;2022-07-23T01:29:06;8.83;;;8.03;;
4422;SDS011;2224;49.814;8.650;2022-07-23T01:31:32;8.63;;;7.77;;
4422;SDS011;2224;49.814;8.650;2022-07-23T01:33:57;9.83;;;8.93;;
4422;SDS011;2224;49.814;8.650;2022-07-23T01:36:23;12.20;;;8.50;;
4422;SDS011;2224;49.814;8.650;2022-07-23T01:38:48;9.60;;;7.90;;
4422;SDS011;2224;49.814;8.650;2022-07-23T01:41:13;9.23;;;8.43;;
4422;SDS011;2224;49.814;8.650;2022-07-23T01:43:39;12.47;;;8.70;;
4422;SDS011;2224;49.814;8.650;2022-07-23T01:46:04;11.40;;;9.03;;
4422;SDS011;2224;49.814;8.650;2022-07-23T01:48:29;9.97;;;9.07;;
4422;SDS011;2224;49.814;8.650;2022-07-23T01:50:55;10.67;;;8.27;;
4422;SDS011;2224;49.814;8.650;2022-07-23T01:53:20;10.70;;;9.60;;
4422;SDS011;2224;49.814;8.650;2022-07-23T01:55:45;10.00;;;9.00;;
4422;SDS011;2224;49.814;8.650;2022-07-23T01:58:11;9.67;;;8.67;;
4422;SDS011;2224;49.814;8.650;2022-07-23T02:00:36;9.87;;;8.97;;
4422;SDS011;2224;49.814;8.650;2022-07-23T02:03:01;10.83;;;8.40;;
4422;SDS011;2224;49.814;8.650;2022-07-23T02:05:27;9.27;;;8.40;;
4422;SDS011;2224;49.814;8.650;2022-07-23T02:07:57;9.90;;;8.90;;
4422;SDS011;2224;49.814;8.650;2022-07-23T02:10:22;8.40;;;7.60;;
4422;SDS011;2224;49.814;8.650;2022-07-23T02:12:48;9.63;;;8.63;;
4422;SDS011;2224;49.814;8.650;2022-07-23T02:15:13;9.60;;;8.77;;
4422;SDS011;2224;49.814;8.650;2022-07-23T02:17:38;10.23;;;8.97;;
4422;SDS011;2224;49.814;8.650;2022-07-23T02:20:05;11.60;;;9.03;;
4422;SDS011;2224;49.814;8.650;2022-07-23T02:22:31;10.73;;;9.10;;
4422;SDS011;2224;49.814;8.650;2022-07-23T02:24:57;8.77;;;7.97;;
4422;SDS011;2224;49.814;8.650;2022-07-23T02:27:22;9.03;;;8.23;;
4422;SDS011;2224;49.814;8.650;2022-07-23T02:29:48;9.67;;;8.67;;
4422;SDS011;2224;49.814;8.650;2022-07-23T02:32:13;8.57;;;7.77;;
4422;SDS011;2224;49.814;8.650;2022-07-23T02:34:39;11.23;;;8.80;;
4422;SDS011;2224;49.814;8.650;2022-07-23T02:37:04;9.00;;;8.03;;
4422;SDS011;2224;49.814;8.650;2022-07-23T02:39:30;8.83;;;8.03;;
4422;SDS011;2224;49.814;8.650;2022-07-23T02:41:55;9.20;;;8.40;;
4422;SDS011;2224;49.814;8.650;2022-07-23T02:44:20;10.10;;;8.97;;
4422;SDS011;2224;49.814;8.650;2022-07-23T02:46:46;7.90;;;7.20;;
4422;SDS011;2224;49.814;8.650;2022-07-23T02:49:11;9.53;;;8.57;;
4422;SDS011;2224;49.814;8.650;2022-07-23T02:51:36;9.47;;;8.20;;
4422;SDS011;2224;49.814;8.650;2022-07-23T02:54:02;9.80;;;8.90;;
4422;SDS011;2224;49.814;8.650;2022-07-23T02:56:27;12.30;;;9.60;;
4422;SDS011;2224;49.814;8.650;2022-07-23T02:58:52;9.73;;;8.67;;
4422;SDS011;2224;49.814;8.650;2022-07-23T03:01:18;10.47;;;9.47;;
4422;SDS011;2224;49.814;8.650;2022-07-23T03:03:43;11.17;;;9.37;;
4422;SDS011;2224;49.814;8.650;2022-07-23T03:06:08;10.33;;;9.20;;
4422;SDS011;2224;49.814;8.650;2022-07-23T03:08:34;11.10;;;9.97;;
4422;SDS011;2224;49.814;8.650;2022-07-23T03:10:59;10.27;;;9.23;;
4422;SDS011;2224;49.814;8.650;2022-07-23T03:13:24;9.20;;;8.40;;
4422;SDS011;2224;49.814;8.650;2022-07-23T03:15:50;9.90;;;9.00;;
4422;SDS011;2224;49.814;8.650;2022-07-23T03:18:15;10.43;;;9.33;;
4422;SDS011;2224;49.814;8.650;2022-07-23T03:20:40;11.43;;;9.67;;
4422;SDS011;2224;49.814;8.650;2022-07-23T03:23:06;10.10;;;9.20;;
4422;SDS011;2224;49.814;8.650;2022-07-23T03:25:31;10.63;;;8.93;;
4422;SDS011;2224;49.814;8.650;2022-07-23T03:27:57;10.93;;;9.83;;
4422;SDS011;2224;49.814;8.650;2022-07-23T03:30:22;10.50;;;8.93;;
4422;SDS011;2224;49.814;8.650;2022-07-23T03:32:47;11.57;;;9.27;;
4422;SDS011;2224;49.814;8.650;2022-07-23T03:35:13;11.50;;;10.40;;
4422;SDS011;2224;49.814;8.650;2022-07-23T03:37:38;12.10;;;10.73;;
4422;SDS011;2224;49.814;8.650;2022-07-23T03:40:04;13.33;;;10.80;;
4422;SDS011;2224;49.814;8.650;2022-07-23T03:42:29;12.60;;;11.03;;
4422;SDS011;2224;49.814;8.650;2022-07-23T03:44:55;10.87;;;9.87;;
4422;SDS011;2224;49.814;8.650;2022-07-23T03:47:20;16.00;;;10.83;;
4422;SDS011;2224;49.814;8.650;2022-07-23T03:49:47;11.27;;;10.17;;
4422;SDS011;2224;49.814;8.650;2022-07-23T03:52:13;10.27;;;9.13;;
4422;SDS011;2224;49.814;8.650;2022-07-23T03:54:38;10.60;;;9.57;;
4422;SDS011;2224;49.814;8.650;2022-07-23T03:57:03;11.00;;;9.83;;
4422;SDS011;2224;49.814;8.650;2022-07-23T03:59:29;10.13;;;9.13;;
4422;SDS011;2224;49.814;8.650;2022-07-23T04:01:54;10.57;;;9.47;;
4422;SDS011;2224;49.814;8.650;2022-07-23T04:04:19;9.90;;;8.90;;
4422;SDS011;2224;49.814;8.650;2022-07-23T04:06:45;10.30;;;9.30;;
4422;SDS011;2224;49.814;8.650;2022-07-23T04:09:10;20.27;;;18.17;;
4422;SDS011;2224;49.814;8.650;2022-07-23T04:11:36;13.37;;;10.50;;
4422;SDS011;2224;49.814;8.650;2022-07-23T04:14:01;11.80;;;10.40;;
4422;SDS011;2224;49.814;8.650;2022-07-23T04:16:26;10.00;;;9.10;;
4422;SDS011;2224;49.814;8.650;2022-07-23T04:18:53;9.60;;;8.70;;
4422;SDS011;2224;49.814;8.650;2022-07-23T04:21:18;10.30;;;9.27;;
4422;SDS011;2224;49.814;8.650;2022-07-23T04:23:44;10.47;;;9.40;;
4422;SDS011;2224;49.814;8.650;2022-07-23T04:26:09;10.57;;;8.93;;
4422;SDS011;2224;49.814;8.650;2022-07-23T04:28:34;10.43;;;9.33;;
4422;SDS011;2224;49.814;8.650;2022-07-23T04:31:00;9.97;;;9.07;;
4422;SDS011;2224;49.814;8.650;2022-07-23T04:33:25;10.23;;;9.20;;
4422;SDS011;2224;49.814;8.650;2022-07-23T04:35:51;10.13;;;9.13;;
4422;SDS011;2224;49.814;8.650;2022-07-23T04:38:16;11.20;;;9.13;;
4422;SDS011;2224;49.814;8.650;2022-07-23T04:40:41;10.50;;;9.40;;
4422;SDS011;2224;49.814;8.650;2022-07-23T04:43:07;10.23;;;9.23;;
4422;SDS011;2224;49.814;8.650;2022-07-23T04:45:32;10.57;;;9.47;;
4422;SDS011;2224;49.814;8.650;2022-07-23T04:47:57;13.03;;;9.83;;
4422;SDS011;2224;49.814;8.650;2022-07-23T04:50:23;9.20;;;8.40;;
4422;SDS011;2224;49.814;8.650;2022-07-23T04:52:49;9.57;;;8.67;;
4422;SDS011;2224;49.814;8.650;2022-07-23T04:55:14;10.20;;;9.20;;
4422;SDS011;2224;49.814;8.650;2022-07-23T04:57:40;11.57;;;8.97;;
4422;SDS011;2224;49.814;8.650;2022-07-23T05:00:05;11.10;;;8.93;;
4422;SDS011;2224;49.814;8.650;2022-07-23T05:02:31;9.60;;;8.70;;
4422;SDS011;2224;49.814;8.650;2022-07-23T05:04:57;10.17;;;9.07;;
4422;SDS011;2224;49.814;8.650;2022-07-23T05:07:22;9.57;;;8.70;;
4422;SDS011;2224;49.814;8.650;2022-07-23T05:09:48;9.43;;;8.63;;
4422;SDS011;2224;49.814;8.650;2022-07-23T05:12:13;9.40;;;8.50;;
4422;SDS011;2224;49.814;8.650;2022-07-23T05:14:38;9.60;;;8.67;;
4422;SDS011;2224;49.814;8.650;2022-07-23T05:17:04;9.00;;;8.10;;
4422;SDS011;2224;49.814;8.650;2022-07-23T05:19:29;9.90;;;8.80;;
4422;SDS011;2224;49.814;8.650;2022-07-23T05:21:54;10.00;;;8.73;;
4422;SDS011;2224;49.814;8.650;2022-07-23T05:24:20;10.83;;;9.37;;
4422;SDS011;2224;49.814;8.650;2022-07-23T05:26:45;10.10;;;9.10;;
4422;SDS011;2224;49.814;8.650;2022-07-23T05:29:10;9.93;;;8.93;;
4422;SDS011;2224;49.814;8.650;2022-07-23T05:31:36;10.17;;;8.57;;
4422;SDS011;2224;49.814;8.650;2022-07-23T05:34:01;13.77;;;9.60;;
4422;SDS011;2224;49.814;8.650;2022-07-23T05:36:26;10.60;;;9.60;;
4422;SDS011;2224;49.814;8.650;2022-07-23T05:38:52;11.70;;;9.60;;
4422;SDS011;2224;49.814;8.650;2022-07-23T05:41:17;10.80;;;9.80;;
4422;SDS011;2224;49.814;8.650;2022-07-23T05:43:42;9.40;;;8.60;;
4422;SDS011;2224;49.814;8.650;2022-07-23T05:46:08;10.37;;;9.37;;
4422;SDS011;2224;49.814;8.650;2022-07-23T05:48:34;9.63;;;8.50;;
4422;SDS011;2224;49.814;8.650;2022-07-23T05:50:59;10.13;;;9.10;;
4422;SDS011;2224;49.814;8.650;2022-07-23T05:53:25;11.60;;;9.80;;
4422;SDS011;2224;49.814;8.650;2022-07-23T05:55:51;10.27;;;9.27;;
4422;SDS011;2224;49.814;8.650;2022-07-23T05:58:16;11.50;;;9.30;;
4422;SDS011;2224;49.814;8.650;2022-07-23T06:00:41;10.80;;;9.70;;
4422;SDS011;2224;49.814;8.650;2022-07-23T06:03:07;14.10;;;8.60;;
4422;SDS011;2224;49.814;8.650;2022-07-23T06:05:32;9.43;;;8.50;;
4422;SDS011;2224;49.814;8.650;2022-07-23T06:07:57;10.77;;;9.67;;
4422;SDS011;2224;49.814;8.650;2022-07-23T06:10:23;9.63;;;8.77;;
4422;SDS011;2224;49.814;8.650;2022-07-23T06:12:48;9.70;;;8.80;;
4422;SDS011;2224;49.814;8.650;2022-07-23T06:15:13;10.47;;;9.47;;
4422;SDS011;2224;49.814;8.650;2022-07-23T06:17:39;9.90;;;8.90;;
4422;SDS011;2224;49.814;8.650;2022-07-23T06:20:08;10.63;;;9.53;;
4422;SDS011;2224;49.814;8.650;2022-07-23T06:22:34;9.60;;;8.70;;
4422;SDS011;2224;49.814;8.650;2022-07-23T06:25:00;10.00;;;9.00;;
4422;SDS011;2224;49.814;8.650;2022-07-23T06:27:26;10.13;;;9.17;;
4422;SDS011;2224;49.814;8.650;2022-07-23T06:29:51;10.57;;;9.47;;
4422;SDS011;2224;49.814;8.650;2022-07-23T06:32:17;10.40;;;9.40;;
4422;SDS011;2224;49.814;8.650;2022-07-23T06:34:42;10.50;;;9.53;;
4422;SDS011;2224;49.814;8.650;2022-07-23T06:37:07;9.90;;;8.90;;
4422;SDS011;2224;49.814;8.650;2022-07-23T06:39:33;12.33;;;9.57;;
4422;SDS011;2224;49.814;8.650;2022-07-23T06:41:58;10.50;;;9.50;;
4422;SDS011;2224;49.814;8.650;2022-07-23T06:44:23;11.90;;;10.70;;
4422;SDS011;2224;49.814;8.650;2022-07-23T06:46:49;10.23;;;9.23;;
4422;SDS011;2224;49.814;8.650;2022-07-23T06:49:14;10.73;;;9.70;;
4422;SDS011;2224;49.814;8.650;2022-07-23T06:51:39;10.23;;;9.20;;
4422;SDS011;2224;49.814;8.650;2022-07-23T06:54:05;10.67;;;9.57;;
4422;SDS011;2224;49.814;8.650;2022-07-23T06:56:30;11.07;;;9.97;;
4422;SDS011;2224;49.814;8.650;2022-07-23T06:58:56;10.40;;;9.47;;
4422;SDS011;2224;49.814;8.650;2022-07-23T07:01:21;11.00;;;9.93;;
4422;SDS011;2224;49.814;8.650;2022-07-23T07:03:47;9.77;;;8.73;;
4422;SDS011;2224;49.814;8.650;2022-07-23T07:06:12;9.60;;;8.70;;
4422;SDS011;2224;49.814;8.650;2022-07-23T07:08:37;12.60;;;9.17;;
4422;SDS011;2224;49.814;8.650;2022-07-23T07:11:03;11.73;;;10.30;;
4422;SDS011;2224;49.814;8.650;2022-07-23T07:13:28;10.03;;;9.00;;
4422;SDS011;2224;49.814;8.650;2022-07-23T07:15:53;14.00;;;9.63;;
4422;SDS011;2224;49.814;8.650;2022-07-23T07:18:19;10.50;;;9.50;;
4422;SDS011;2224;49.814;8.650;2022-07-23T07:20:44;9.60;;;8.77;;
4422;SDS011;2224;49.814;8.650;2022-07-23T07:23:09;11.20;;;10.20;;
4422;SDS011;2224;49.814;8.650;2022-07-23T07:25:35;10.03;;;8.27;;
4422;SDS011;2224;49.814;8.650;2022-07-23T07:28:00;10.07;;;9.17;;
4422;SDS011;2224;49.814;8.650;2022-07-23T07:30:25;9.87;;;8.97;;
4422;SDS011;2224;49.814;8.650;2022-07-23T07:32:51;10.07;;;9.07;;
4422;SDS011;2224;49.814;8.650;2022-07-23T07:35:16;10.30;;;9.40;;
4422;SDS011;2224;49.814;8.650;2022-07-23T07:37:41;9.83;;;8.83;;
4422;SDS011;2224;49.814;8.650;2022-07-23T07:40:07;11.23;;;10.10;;
4422;SDS011;2224;49.814;8.650;2022-07-23T07:42:33;10.17;;;9.20;;
4422;SDS011;2224;49.814;8.650;2022-07-23T07:44:58;10.23;;;9.23;;
4422;SDS011;2224;49.814;8.650;2022-07-23T07:47:23;10.57;;;9.57;;
4422;SDS011;2224;49.814;8.650;2022-07-23T07:49:49;10.30;;;9.30;;
4422;SDS011;2224;49.814;8.650;2022-07-23T07:52:14;12.03;;;9.10;;
4422;SDS011;2224;49.814;8.650;2022-07-23T07:54:40;10.13;;;9.23;;
4422;SDS011;2224;49.814;8.650;2022-07-23T07:57:05;11.07;;;8.97;;
4422;SDS011;2224;49.814;8.650;2022-07-23T07:59:30;9.10;;;8.20;;
4422;SDS011;2224;49.814;8.650;2022-07-23T08:01:55;10.93;;;9.23;;
4422;SDS011;2224;49.814;8.650;2022-07-23T08:04:21;10.57;;;9.47;;
4422;SDS011;2224;49.814;8.650;2022-07-23T08:06:46;9.43;;;8.43;;
4422;SDS011;2224;49.814;8.650;2022-07-23T08:09:11;10.17;;;8.07;;
4422;SDS011;2224;49.814;8.650;2022-07-23T08:11:37;9.93;;;8.73;;
4422;SDS011;2224;49.814;8.650;2022-07-23T08:14:02;9.70;;;8.80;;
4422;SDS011;2224;49.814;8.650;2022-07-23T08:16:28;10.27;;;9.33;;
4422;SDS011;2224;49.814;8.650;2022-07-23T08:18:53;10.97;;;8.73;;
4422;SDS011;2224;49.814;8.650;2022-07-23T08:21:18;10.47;;;9.40;;
4422;SDS011;2224;49.814;8.650;2022-07-23T08:23:44;13.00;;;8.60;;
4422;SDS011;2224;49.814;8.650;2022-07-23T08:26:09;10.87;;;9.30;;
4422;SDS011;2224;49.814;8.650;2022-07-23T08:28:35;10.13;;;9.23;;
4422;SDS011;2224;49.814;8.650;2022-07-23T08:31:00;9.97;;;8.97;;
4422;SDS011;2224;49.814;8.650;2022-07-23T08:33:26;10.93;;;9.10;;
4422;SDS011;2224;49.814;8.650;2022-07-23T08:35:51;11.73;;;8.87;;
4422;SDS011;2224;49.814;8.650;2022-07-23T08:38:21;9.50;;;8.63;;
4422;SDS011;2224;49.814;8.650;2022-07-23T08:40:48;9.20;;;8.27;;
4422;SDS011;2224;49.814;8.650;2022-07-23T08:43:17;9.83;;;8.93;;
4422;SDS011;2224;49.814;8.650;2022-07-23T08:45:45;10.13;;;8.77;;
4422;SDS011;2224;49.814;8.650;2022-07-23T08:48:16;9.67;;;8.67;;
4422;SDS011;2224;49.814;8.650;2022-07-23T08:50:46;10.17;;;9.17;;
4422;SDS011;2224;49.814;8.650;2022-07-23T08:53:13;9.53;;;8.60;;
4422;SDS011;2224;49.814;8.650;2022-07-23T08:55:40;9.83;;;8.90;;
4422;SDS011;2224;49.814;8.650;2022-07-23T08:58:08;10.73;;;9.23;;
4422;SDS011;2224;49.814;8.650;2022-07-23T09:00:33;9.03;;;8.23;;
4422;SDS011;2224;49.814;8.650;2022-07-23T09:02:59;10.20;;;9.23;;
4422;SDS011;2224;49.814;8.650;2022-07-23T09:05:24;10.47;;;9.07;;
4422;SDS011;2224;49.814;8.650;2022-07-23T09:08:03;9.57;;;8.57;;
4422;SDS011;2224;49.814;8.650;2022-07-23T09:10:42;9.00;;;8.20;;
4422;SDS011;2224;49.814;8.650;2022-07-23T09:13:25;9.10;;;8.20;;
4422;SDS011;2224;49.814;8.650;2022-07-23T09:15:54;9.17;;;8.27;;
4422;SDS011;2224;49.814;8.650;2022-07-23T09:18:28;8.83;;;8.00;;
4422;SDS011;2224;49.814;8.650;2022-07-23T09:24:20;9.63;;;8.73;;
4422;SDS011;2224;49.814;8.650;2022-07-23T09:29:02;9.43;;;8.53;;
4422;SDS011;2224;49.814;8.650;2022-07-23T09:34:21;9.93;;;8.97;;
4422;SDS011;2224;49.814;8.650;2022-07-23T09:36:51;9.13;;;8.33;;
4422;SDS011;2224;49.814;8.650;2022-07-23T09:39:25;9.90;;;9.00;;
4422;SDS011;2224;49.814;8.650;2022-07-23T09:41:54;9.10;;;8.20;;
4422;SDS011;2224;49.814;8.650;2022-07-23T09:44:20;10.43;;;9.07;;
4422;SDS011;2224;49.814;8.650;2022-07-23T09:46:47;10.83;;;9.80;;
4422;SDS011;2224;49.814;8.650;2022-07-23T09:49:18;9.77;;;8.87;;
4422;SDS011;2224;49.814;8.650;2022-07-23T09:51:45;9.27;;;8.23;;
4422;SDS011;2224;49.814;8.650;2022-07-23T09:56:52;10.50;;;9.27;;
4422;SDS011;2224;49.814;8.650;2022-07-23T09:59:18;9.53;;;8.63;;
4422;SDS011;2224;49.814;8.650;2022-07-23T10:01:52;10.80;;;9.67;;
4422;SDS011;2224;49.814;8.650;2022-07-23T10:04:18;11.70;;;10.53;;
4422;SDS011;2224;49.814;8.650;2022-07-23T10:06:46;10.07;;;9.07;;
4422;SDS011;2224;49.814;8.650;2022-07-23T10:09:12;11.33;;;9.30;;
4422;SDS011;2224;49.814;8.650;2022-07-23T10:11:40;9.33;;;8.43;;
4422;SDS011;2224;49.814;8.650;2022-07-23T10:14:05;9.37;;;8.63;;
4422;SDS011;2224;49.814;8.650;2022-07-23T10:16:31;9.43;;;8.53;;
4422;SDS011;2224;49.814;8.650;2022-07-23T10:18:57;9.50;;;8.70;;
4422;SDS011;2224;49.814;8.650;2022-07-23T10:21:40;8.70;;;7.90;;
4422;SDS011;2224;49.814;8.650;2022-07-23T10:27:07;10.30;;;9.30;;
4422;SDS011;2224;49.814;8.650;2022-07-23T10:29:55;8.93;;;8.13;;
4422;SDS011;2224;49.814;8.650;2022-07-23T10:35:24;8.63;;;7.73;;
4422;SDS011;2224;49.814;8.650;2022-07-23T10:38:34;8.60;;;7.80;;
4422;SDS011;2224;49.814;8.650;2022-07-23T10:41:03;9.07;;;8.27;;
4422;SDS011;2224;49.814;8.650;2022-07-23T10:43:30;9.00;;;8.10;;
4422;SDS011;2224;49.814;8.650;2022-07-23T10:45:56;9.37;;;8.57;;
4422;SDS011;2224;49.814;8.650;2022-07-23T10:49:20;9.43;;;8.63;;
4422;SDS011;2224;49.814;8.650;2022-07-23T10:54:50;9.87;;;8.80;;
4422;SDS011;2224;49.814;8.650;2022-07-23T10:57:24;9.43;;;8.53;;
4422;SDS011;2224;49.814;8.650;2022-07-23T11:02:33;11.23;;;8.93;;
4422;SDS011;2224;49.814;8.650;2022-07-23T11:05:01;9.20;;;8.27;;
4422;SDS011;2224;49.814;8.650;2022-07-23T11:07:32;9.30;;;8.50;;
4422;SDS011;2224;49.814;8.650;2022-07-23T11:09:58;9.37;;;8.53;;
4422;SDS011;2224;49.814;8.650;2022-07-23T11:20:16;10.03;;;8.40;;
4422;SDS011;2224;49.814;8.650;2022-07-23T11:25:08;11.13;;;10.10;;
4422;SDS011;2224;49.814;8.650;2022-07-23T11:27:38;9.80;;;8.83;;
4422;SDS011;2224;49.814;8.650;2022-07-23T11:30:07;10.20;;;9.27;;
4422;SDS011;2224;49.814;8.650;2022-07-23T11:32:38;9.53;;;8.63;;
4422;SDS011;2224;49.814;8.650;2022-07-23T11:35:25;9.83;;;8.93;;
4422;SDS011;2224;49.814;8.650;2022-07-23T11:37:51;9.93;;;8.93;;
4422;SDS011;2224;49.814;8.650;2022-07-23T11:40:23;10.03;;;9.03;;
4422;SDS011;2224;49.814;8.650;2022-07-23T11:42:51;9.97;;;9.17;;
4422;SDS011;2224;49.814;8.650;2022-07-23T11:45:17;9.87;;;8.87;;
4422;SDS011;2224;49.814;8.650;2022-07-23T11:47:43;10.50;;;9.40;;
4422;SDS011;2224;49.814;8.650;2022-07-23T11:50:08;10.57;;;9.47;;
4422;SDS011;2224;49.814;8.650;2022-07-23T11:52:33;10.10;;;9.20;;
4422;SDS011;2224;49.814;8.650;2022-07-23T11:55:00;9.30;;;8.27;;
4422;SDS011;2224;49.814;8.650;2022-07-23T11:57:28;9.60;;;8.80;;
4422;SDS011;2224;49.814;8.650;2022-07-23T11:59:56;9.40;;;8.50;;
4422;SDS011;2224;49.814;8.650;2022-07-23T12:02:23;10.10;;;9.20;;
4422;SDS011;2224;49.814;8.650;2022-07-23T12:04:50;10.53;;;8.60;;
4422;SDS011;2224;49.814;8.650;2022-07-23T12:07:49;9.63;;;8.83;;
4422;SDS011;2224;49.814;8.650;2022-07-23T12:10:20;9.50;;;8.63;;
4422;SDS011;2224;49.814;8.650;2022-07-23T12:15:12;9.50;;;8.60;;
4422;SDS011;2224;49.814;8.650;2022-07-23T12:17:39;9.60;;;8.80;;
4422;SDS011;2224;49.814;8.650;2022-07-23T12:20:06;9.70;;;8.90;;
4422;SDS011;2224;49.814;8.650;2022-07-23T12:22:41;8.57;;;7.70;;
4422;SDS011;2224;49.814;8.650;2022-07-23T12:25:12;8.97;;;8.07;;
4422;SDS011;2224;49.814;8.650;2022-07-23T12:27:42;10.20;;;9.13;;
4422;SDS011;2224;49.814;8.650;2022-07-23T12:30:18;9.30;;;8.60;;
4422;SDS011;2224;49.814;8.650;2022-07-23T12:32:46;7.40;;;6.77;;
4422;SDS011;2224;49.814;8.650;2022-07-23T12:35:12;9.20;;;7.80;;
4422;SDS011;2224;49.814;8.650;2022-07-23T12:37:39;9.00;;;8.30;;
4422;SDS011;2224;49.814;8.650;2022-07-23T12:40:25;8.43;;;7.73;;
4422;SDS011;2224;49.814;8.650;2022-07-23T12:43:00;8.83;;;8.13;;
4422;SDS011;2224;49.814;8.650;2022-07-23T12:45:45;8.10;;;7.40;;
4422;SDS011;2224;49.814;8.650;2022-07-23T12:50:54;8.70;;;7.90;;
4422;SDS011;2224;49.814;8.650;2022-07-23T12:53:20;7.70;;;7.10;;
4422;SDS011;2224;49.814;8.650;2022-07-23T12:55:47;7.90;;;7.30;;
4422;SDS011;2224;49.814;8.650;2022-07-23T12:58:15;8.00;;;7.20;;
4422;SDS011;2224;49.814;8.650;2022-07-23T13:03:25;8.80;;;8.00;;
4422;SDS011;2224;49.814;8.650;2022-07-23T13:05:50;8.97;;;8.27;;
4422;SDS011;2224;49.814;8.650;2022-07-23T13:08:16;8.80;;;8.10;;
4422;SDS011;2224;49.814;8.650;2022-07-23T13:10:42;9.40;;;8.60;;
4422;SDS011;2224;49.814;8.650;2022-07-23T13:13:10;8.63;;;8.00;;
4422;SDS011;2224;49.814;8.650;2022-07-23T13:15:36;8.40;;;7.73;;
4422;SDS011;2224;49.814;8.650;2022-07-23T13:18:01;8.30;;;7.60;;
4422;SDS011;2224;49.814;8.650;2022-07-23T13:20:26;7.83;;;7.23;;
4422;SDS011;2224;49.814;8.650;2022-07-23T13:22:52;7.60;;;6.93;;
4422;SDS011;2224;49.814;8.650;2022-07-23T13:25:17;7.90;;;7.20;;
4422;SDS011;2224;49.814;8.650;2022-07-23T13:27:42;7.77;;;7.07;;
4422;SDS011;2224;49.814;8.650;2022-07-23T13:30:08;7.50;;;6.90;;
4422;SDS011;2224;49.814;8.650;2022-07-23T13:32:35;9.00;;;8.30;;
4422;SDS011;2224;49.814;8.650;2022-07-23T13:35:01;7.93;;;7.13;;
4422;SDS011;2224;49.814;8.650;2022-07-23T13:37:26;8.23;;;7.43;;
4422;SDS011;2224;49.814;8.650;2022-07-23T13:39:51;7.47;;;6.77;;
4422;SDS011;2224;49.814;8.650;2022-07-23T13:42:17;8.50;;;7.70;;
4422;SDS011;2224;49.814;8.650;2022-07-23T13:44:42;8.20;;;7.53;;
4422;SDS011;2224;49.814;8.650;2022-07-23T13:47:07;8.20;;;7.60;;
4422;SDS011;2224;49.814;8.650;2022-07-23T13:49:33;7.57;;;6.90;;
4422;SDS011;2224;49.814;8.650;2022-07-23T13:51:58;7.47;;;6.87;;
4422;SDS011;2224;49.814;8.650;2022-07-23T13:54:23;7.50;;;6.90;;
4422;SDS011;2224;49.814;8.650;2022-07-23T13:56:49;7.87;;;7.13;;
4422;SDS011;2224;49.814;8.650;2022-07-23T13:59:14;7.30;;;6.70;;
4422;SDS011;2224;49.814;8.650;2022-07-23T14:01:39;7.90;;;7.30;;
4422;SDS011;2224;49.814;8.650;2022-07-23T14:04:05;8.00;;;7.30;;
4422;SDS011;2224;49.814;8.650;2022-07-23T14:06:30;8.30;;;7.20;;
4422;SDS011;2224;49.814;8.650;2022-07-23T14:08:55;8.50;;;7.83;;
4422;SDS011;2224;49.814;8.650;2022-07-23T14:11:21;8.53;;;7.63;;
4422;SDS011;2224;49.814;8.650;2022-07-23T14:13:46;9.07;;;7.67;;
4422;SDS011;2224;49.814;8.650;2022-07-23T14:16:11;7.47;;;6.77;;
4422;SDS011;2224;49.814;8.650;2022-07-23T14:18:37;7.27;;;6.73;;
4422;SDS011;2224;49.814;8.650;2022-07-23T14:21:02;9.57;;;8.80;;
4422;SDS011;2224;49.814;8.650;2022-07-23T14:23:28;8.03;;;7.33;;
4422;SDS011;2224;49.814;8.650;2022-07-23T14:25:53;7.50;;;6.90;;
4422;SDS011;2224;49.814;8.650;2022-07-23T14:28:19;8.83;;;7.10;;
4422;SDS011;2224;49.814;8.650;2022-07-23T14:30:44;7.27;;;6.67;;
4422;SDS011;2224;49.814;8.650;2022-07-23T14:33:10;7.43;;;6.83;;
4422;SDS011;2224;49.814;8.650;2022-07-23T14:35:35;7.63;;;7.03;;
4422;SDS011;2224;49.814;8.650;2022-07-23T14:38:03;8.00;;;7.40;;
4422;SDS011;2224;49.814;8.650;2022-07-23T14:40:29;7.50;;;7.00;;
4422;SDS011;2224;49.814;8.650;2022-07-23T14:42:54;8.00;;;7.30;;
4422;SDS011;2224;49.814;8.650;2022-07-23T14:45:20;7.43;;;6.80;;
4422;SDS011;2224;49.814;8.650;2022-07-23T14:47:46;7.70;;;7.00;;
4422;SDS011;2224;49.814;8.650;2022-07-23T14:50:11;7.33;;;6.83;;
4422;SDS011;2224;49.814;8.650;2022-07-23T14:52:37;7.70;;;6.97;;
4422;SDS011;2224;49.814;8.650;2022-07-23T14:55:02;7.90;;;7.30;;
4422;SDS011;2224;49.814;8.650;2022-07-23T14:57:28;7.67;;;6.97;;
4422;SDS011;2224;49.814;8.650;2022-07-23T14:59:53;7.10;;;6.57;;
4422;SDS011;2224;49.814;8.650;2022-07-23T15:02:18;8.23;;;7.50;;
4422;SDS011;2224;49.814;8.650;2022-07-23T15:04:44;8.50;;;7.90;;
4422;SDS011;2224;49.814;8.650;2022-07-23T15:07:09;7.60;;;7.00;;
4422;SDS011;2224;49.814;8.650;2022-07-23T15:09:34;7.50;;;6.90;;
4422;SDS011;2224;49.814;8.650;2022-07-23T15:12:00;7.50;;;7.00;;
4422;SDS011;2224;49.814;8.650;2022-07-23T15:14:25;7.80;;;7.10;;
4422;SDS011;2224;49.814;8.650;2022-07-23T15:16:51;7.20;;;6.60;;
4422;SDS011;2224;49.814;8.650;2022-07-23T15:19:16;9.23;;;6.83;;
4422;SDS011;2224;49.814;8.650;2022-07-23T15:21:42;7.57;;;6.97;;
4422;SDS011;2224;49.814;8.650;2022-07-23T15:24:07;8.10;;;7.50;;
4422;SDS011;2224;49.814;8.650;2022-07-23T15:26:33;7.10;;;6.50;;
4422;SDS011;2224;49.814;8.650;2022-07-23T15:28:58;9.80;;;7.50;;
4422;SDS011;2224;49.814;8.650;2022-07-23T15:31:24;6.93;;;6.43;;
4422;SDS011;2224;49.814;8.650;2022-07-23T15:33:49;7.40;;;6.73;;
4422;SDS011;2224;49.814;8.650;2022-07-23T15:36:16;7.63;;;6.97;;
4422;SDS011;2224;49.814;8.650;2022-07-23T15:38:45;7.43;;;6.73;;
4422;SDS011;2224;49.814;8.650;2022-07-23T15:41:11;7.83;;;7.13;;
4422;SDS011;2224;49.814;8.650;2022-07-23T15:43:36;7.50;;;6.80;;
4422;SDS011;2224;49.814;8.650;2022-07-23T15:46:02;7.53;;;6.63;;
4422;SDS011;2224;49.814;8.650;2022-07-23T15:48:29;8.20;;;7.50;;